YLUW weather

Leeuwin Estate Airport
Western Australia, Australia

Public forecast

Using degrees Celsius for public forecast. Weather courtesy of forecast.io.

METAR (pilot weather report)

Closest report is Perth Jandakot Airport, 122.6 nm (227.0 km) NNE. Retrieved 2019/03/25 15:30 UTC (1 minute ago):

YPJT 251530Z AUTO 07011KT 9999 // NCD 22/04 Q1018 RF00.0/000.0

TAF (pilot weather forecast)

Closest forecast is Perth Jandakot Airport, 122.6 nm (227.0 km) NNE. Retrieved 2019/03/25 12:00 UTC (4 hours ago):

TAF YPJT 251002Z 2512/2606 10014KT CAVOK FM251600 08014G24KT CAVOK FM260100 05012KT CAVOK